Data for 02/16/2005

Time Sea-Level Adjusted Pressure Absolute Pressure Temperature Relative Humidity Dew Point   
(mb) (inHg) (mb) (inHg) (C) (F) (%) (C) (F)
00:05 1022 30.18 851 25.13 -10.4 13.2 70 -14.8 5.3
00:10 1022 30.18 851 25.13 -10.5 13.2 71 -14.8 5.4
00:15 1022 30.18 851 25.13 -10.5 13.1 71 -14.8 5.3
00:20 1022 30.18 851 25.13 -10.5 13.1 71 -14.8 5.3
00:25 1022 30.18 851 25.13 -10.6 13 71 -14.9 5.2
00:30 1022 30.18 851 25.13 -10.6 12.8 71 -14.9 5.1
00:35 1022 30.18 851 25.13 -10.6 13 71 -14.9 5.2
00:40 1022 30.18 851 25.13 -10.5 13.2 71 -14.8 5.4
00:45 1022 30.18 851 25.13 -10.4 13.3 70 -14.8 5.4
00:50 1022 30.18 851 25.13 -10.6 13 72 -14.8 5.4
00:55 1022 30.18 851 25.13 -10.7 12.8 72 -14.8 5.4
01:00 1022 30.18 851 25.13 -10.5 13.1 71 -14.8 5.4
01:05 1022 30.18 851 25.13 -10.5 13.1 71 -14.7 5.5
01:10 1022 30.18 851 25.13 -10.5 13.1 71 -14.9 5.2
01:15 1022 30.18 851 25.13 -10.3 13.6 69 -14.9 5.3
01:20 1022 30.18 851 25.13 -10.2 13.7 69 -14.9 5.2
01:25 1022 30.18 851 25.13 -10.2 13.7 69 -14.8 5.4
01:30 1022 30.18 851 25.13 -10.5 13.2 70 -14.9 5.2
01:35 1022 30.18 851 25.13 -10.8 12.5 71 -15 5
01:40 1022 30.18 851 25.13 -10.9 12.3 72 -15 5
01:45 1022 30.18 851 25.13 -10.8 12.7 72 -14.8 5.3
01:50 1022 30.18 851 25.13 -10.7 12.8 72 -14.8 5.4
01:55 1022 30.18 851 25.13 -10.5 13.1 72 -14.7 5.6
02:00 1022 30.18 851 25.13 -10.7 12.7 72 -14.8 5.4
02:05 1022 30.18 851 25.13 -10.6 12.9 72 -14.8 5.4
02:10 1022 30.18 851 25.13 -10.2 13.7 70 -14.6 5.7
02:15 1022 30.18 851 25.13 -9.9 14.1 69 -14.6 5.8
02:20 1022 30.18 851 25.13 -9.9 14.1 69 -14.6 5.8
02:25 1022 30.18 851 25.13 -10.2 13.6 71 -14.6 5.7
02:30 1022 30.18 852 25.16 -10.4 13.4 71 -14.7 5.5
02:35 1022 30.18 852 25.16 -10.3 13.5 70 -14.8 5.4
02:40 1022 30.18 852 25.16 -10.2 13.6 69 -14.9 5.2
02:45 1022 30.18 852 25.16 -10.3 13.4 70 -14.8 5.4
02:50 1023 30.21 852 25.16 -10.5 13.1 70 -15 5
02:55 1022 30.18 852 25.16 -10.5 13.1 70 -15 4.9
03:00 1022 30.18 852 25.16 -10.7 12.8 70 -15.1 4.7
03:05 1022 30.18 852 25.16 -10.7 12.8 69 -15.3 4.5
03:10 1022 30.18 852 25.16 -10.7 12.7 69 -15.3 4.5
03:15 1023 30.21 852 25.16 -10.8 12.6 69 -15.3 4.4
03:20 1023 30.21 852 25.16 -10.7 12.8 69 -15.3 4.5
03:25 1023 30.21 852 25.16 -10.5 13 68 -15.4 4.4
03:30 1023 30.21 852 25.16 -10.4 13.2 68 -15.2 4.6
03:35 1023 30.21 852 25.16 -10.9 12.4 69 -15.4 4.2
03:40 1023 30.21 852 25.16 -11.2 11.9 70 -15.6 4
03:45 1023 30.21 852 25.16 -11 12.2 69 -15.6 3.9
03:50 1023 30.21 852 25.16 -10.9 12.5 69 -15.5 4.1
03:55 1023 30.21 852 25.16 -11.1 12.1 70 -15.6 4
04:00 1023 30.21 852 25.16 -11.4 11.5 71 -15.7 3.7
04:05 1023 30.21 852 25.16 -11.7 11 72 -15.8 3.5
04:10 1023 30.21 852 25.16 -11.8 10.7 72 -16 3.3
04:15 1023 30.21 852 25.16 -12 10.3 73 -16 3.2
04:20 1023 30.21 852 25.16 -12.1 10.2 73 -16 3.2
04:25 1023 30.21 852 25.16 -12.3 9.8 75 -15.9 3.3
04:30 1023 30.21 852 25.16 -12.3 9.8 75 -16 3.3
04:35 1023 30.21 852 25.16 -12 10.4 73 -15.8 3.5
04:40 1023 30.21 852 25.16 -11.8 10.8 74 -15.6 3.9
04:45 1023 30.21 852 25.16 -11.7 10.9 73 -15.6 4
04:50 1023 30.21 852 25.16 -11.9 10.6 74 -15.7 3.8
04:55 1023 30.21 852 25.16 -12 10.4 75 -15.7 3.8
05:00 1023 30.21 852 25.16 -12.1 10.2 78 -15.3 4.5
05:05 1023 30.21 852 25.16 -11.8 10.8 74 -15.5 4.2
05:10 1023 30.21 852 25.16 -11.6 11.1 74 -15.3 4.4
05:15 1023 30.21 852 25.16 -11.9 10.5 76 -15.3 4.4
05:20 1023 30.21 852 25.16 -11.7 11 75 -15.3 4.5
05:25 1023 30.21 852 25.16 -11.2 11.9 73 -15.1 4.8
05:30 1023 30.21 852 25.16 -11.2 11.8 73 -15.2 4.6
05:35 1023 30.21 852 25.16 -11.7 11 75 -15.3 4.5
05:40 1023 30.21 852 25.16 -11.9 10.6 75 -15.5 4.2
05:45 1023 30.21 852 25.16 -12.1 10.3 76 -15.6 4
05:50 1023 30.21 852 25.16 -12.2 10 77 -15.5 4.1
05:55 1023 30.21 852 25.16 -12 10.4 76 -15.4 4.3
06:00 1023 30.21 852 25.16 -11.9 10.7 75 -15.4 4.2
06:05 1023 30.21 852 25.16 -12 10.4 76 -15.5 4.1
06:10 1023 30.21 852 25.16 -12.2 10 76 -15.6 3.9
06:15 1023 30.21 852 25.16 -12.2 10 76 -15.7 3.8
06:20 1023 30.21 852 25.16 -12.2 10.1 76 -15.6 3.9
06:25 1023 30.21 852 25.16 -12.4 9.7 76 -15.8 3.5
06:30 1023 30.21 852 25.16 -12.7 9.2 77 -15.8 3.5
06:35 1023 30.21 852 25.16 -12.6 9.3 77 -15.9 3.4
06:40 1023 30.21 852 25.16 -12.4 9.7 76 -15.8 3.6
06:45 1023 30.21 852 25.16 -12.4 9.8 75 -15.8 3.5
06:50 1023 30.21 852 25.16 -12.3 9.8 76 -15.8 3.6
06:55 1023 30.21 852 25.16 -12.3 10 75 -15.8 3.6
07:00 1023 30.21 852 25.16 -12 10.4 74 -15.7 3.7
07:05 1023 30.21 852 25.16 -11.8 10.7 74 -15.6 4
07:10 1023 30.21 852 25.16 -11.6 11.1 74 -15.3 4.4
07:15 1023 30.21 852 25.16 -11.5 11.3 73 -15.4 4.2
07:20 1023 30.21 852 25.16 -11.5 11.3 73 -15.4 4.3
07:25 1023 30.21 852 25.16 -11.6 11.1 73 -15.5 4.1
07:30 1023 30.21 853 25.19 -12 10.4 75 -15.7 3.8
07:35 1023 30.21 853 25.19 -12 10.3 75 -15.7 3.8
07:40 1023 30.21 853 25.19 -12.3 9.9 74 -16 3.2
07:45 1023 30.21 853 25.19 -12.1 10.3 74 -15.8 3.5
07:50 1023 30.21 853 25.19 -11.7 11 71 -16 3.2
07:55 1024 30.24 853 25.19 -11.3 11.6 69 -16 3.2
08:00 1024 30.24 853 25.19 -11.5 11.4 70 -15.8 3.5
08:05 1024 30.24 853 25.19 -10.9 12.3 66 -16.1 3.1
08:10 1024 30.24 853 25.19 -10.7 12.8 67 -15.6 3.9
08:15 1024 30.24 853 25.19 -10.9 12.4 65 -16.2 2.9
08:20 1024 30.24 853 25.19 -11.3 11.6 68 -16.2 2.9
08:25 1024 30.24 853 25.19 -11.3 11.7 67 -16.3 2.7
08:30 1024 30.24 853 25.19 -10.9 12.5 65 -16.2 2.8
08:35 1024 30.24 853 25.19 -10.8 12.6 65 -16.1 3
08:40 1024 30.24 853 25.19 -10.4 13.4 62 -16.3 2.7
08:45 1024 30.24 853 25.19 -9.6 14.8 61 -15.7 3.7
08:50 1024 30.24 853 25.19 -9.1 15.6 59 -15.8 3.5
08:55 1024 30.24 853 25.19 -8.9 16 58 -15.8 3.6
09:00 1024 30.24 853 25.19 -8.7 16.4 57 -15.7 3.7
09:05 1024 30.24 853 25.19 -8.2 17.2 55 -15.7 3.7
09:10 1024 30.24 853 25.19 -8.5 16.7 57 -15.6 3.9
09:15 1024 30.24 853 25.19 -8.3 17.1 57 -15.4 4.3
09:20 1024 30.24 853 25.19 -6.9 19.5 51 -15.4 4.2
09:25 1024 30.24 853 25.19 -6.7 19.9 52 -15 5
09:30 1024 30.24 853 25.19 -6.3 20.6 50 -15.2 4.7
09:35 1024 30.24 853 25.19 -6.1 21 50 -15 4.9
09:40 1024 30.24 853 25.19 -5.8 21.5 49 -15 5
09:45 1024 30.24 853 25.19 -5 22.9 46 -15 4.9
09:50 1024 30.24 853 25.19 -5.2 22.7 48 -14.6 5.7
09:55 1024 30.24 853 25.19 -4.7 23.6 46 -14.5 5.8
10:00 1024 30.24 853 25.19 -4.7 23.6 46 -14.6 5.8
10:05 1024 30.24 853 25.19 -5 23 46 -14.8 5.3
10:10 1024 30.24 853 25.19 -4.7 23.6 46 -14.6 5.7
10:15 1024 30.24 853 25.19 -4.5 23.9 46 -14.6 5.8
10:20 1024 30.24 853 25.19 -4.3 24.3 44 -14.7 5.6
10:25 1024 30.24 853 25.19 -4.4 24.1 45 -14.7 5.5
10:30 1024 30.24 853 25.19 -4.1 24.6 44 -14.7 5.6
10:35 1024 30.24 853 25.19 -3.9 25 44 -14.4 6.1
10:40 1024 30.24 853 25.19 -3.6 25.6 42 -14.8 5.4
10:45 1024 30.24 853 25.19 -3.7 25.4 43 -14.4 6.1
10:50 1024 30.24 853 25.19 -3.7 25.3 42 -14.8 5.4
10:55 1024 30.24 853 25.19 -3.5 25.7 43 -14.4 6
11:00 1024 30.24 853 25.19 -3.3 26.1 41 -14.7 5.5
11:05 1024 30.24 853 25.19 -3.4 26 42 -14.4 6
11:10 1024 30.24 853 25.19 -3.7 25.4 44 -14.2 6.5
11:15 1024 30.24 853 25.19 -3.7 25.3 44 -14.4 6.1
11:20 1024 30.24 853 25.19 -3.7 25.4 41 -15.1 4.8
11:25 1024 30.24 853 25.19 -3.8 25.2 43 -14.7 5.6
11:30 1024 30.24 853 25.19 -4 24.8 44 -14.5 6
11:35 1024 30.24 853 25.19 -4.1 24.7 45 -14.3 6.3
11:40 1024 30.24 853 25.19 -3.7 25.3 43 -14.6 5.7
11:45 1024 30.24 853 25.19 -3.8 25.1 44 -14.5 5.9
11:50 1024 30.24 853 25.19 -3.5 25.7 42 -14.7 5.5
11:55 1024 30.24 853 25.19 -3.3 26.1 39 -15.5 4
12:00 1024 30.24 853 25.19 -2.9 26.8 40 -14.6 5.8
12:05 1024 30.24 853 25.19 -2.8 27 41 -14.2 6.5
12:10 1024 30.24 853 25.19 -3 26.6 43 -14 6.7
12:15 1024 30.24 853 25.19 -2.9 26.9 41 -14.4 6.1
12:20 1024 30.24 853 25.19 -2.4 27.7 41 -14.1 6.7
12:25 1024 30.24 853 25.19 -2.7 27.2 41 -14.1 6.7
12:30 1024 30.24 853 25.19 -2.6 27.4 41 -14.1 6.6
12:35 1024 30.24 853 25.19 -2.8 27 44 -13.5 7.6
12:40 1024 30.24 853 25.19 -3.6 25.5 45 -13.8 7.1
12:45 1023 30.21 853 25.19 -3.6 25.6 43 -14.4 6.1
12:50 1023 30.21 853 25.19 -3.3 26.1 43 -14.2 6.4
12:55 1023 30.21 853 25.19 -3.4 25.8 45 -13.8 7.2
13:00 1023 30.21 853 25.19 -3.9 24.9 46 -14.1 6.7
13:05 1023 30.21 852 25.16 -3.4 25.9 43 -14.2 6.4
13:10 1023 30.21 852 25.16 -2.9 26.8 41 -14.5 5.9
13:15 1023 30.21 852 25.16 -2.9 26.8 42 -14.2 6.5
13:20 1023 30.21 852 25.16 -2.5 27.5 41 -14.1 6.5
13:25 1023 30.21 852 25.16 -1.9 28.6 39 -14.1 6.5
13:30 1023 30.21 852 25.16 -1.3 29.6 35 -14.8 5.3
13:35 1023 30.21 852 25.16 -0.9 30.3 35 -14.7 5.6
13:40 1023 30.21 852 25.16 -0.5 31.1 33 -15.1 4.9
13:45 1023 30.21 852 25.16 -0.1 31.9 33 -14.5 5.8
13:50 1023 30.21 852 25.16 0.2 32.4 34 -13.9 7
13:55 1023 30.21 852 25.16 0.2 32.4 34 -14 6.8
14:00 1023 30.21 852 25.16 0.3 32.5 33 -14.2 6.5
14:05 1023 30.21 852 25.16 0.5 33 32 -14.5 5.9
14:10 1023 30.21 852 25.16 0.5 33 28 -16.1 3
14:15 1023 30.21 852 25.16 -0.8 30.6 32 -15.7 3.8
14:20 1023 30.21 852 25.16 -1 30.1 33 -15.2 4.6
14:25 1023 30.21 852 25.16 0.5 32.8 30 -15.2 4.6
14:30 1022 30.18 852 25.16 0.1 32.2 33 -14.4 6.1
14:35 1022 30.18 852 25.16 0.5 32.9 32 -14.2 6.4
14:40 1022 30.18 852 25.16 0.3 32.6 35 -13.5 7.7
14:45 1022 30.18 852 25.16 -1.1 29.9 36 -14.6 5.8
14:50 1022 30.18 851 25.13 -0.5 31.1 33 -14.7 5.5
14:55 1022 30.18 851 25.13 0 32 33 -14.3 6.2
15:00 1022 30.18 851 25.13 -0.2 31.6 35 -14.1 6.7
15:05 1022 30.18 851 25.13 0.1 32.2 33 -14.3 6.2
15:10 1022 30.18 851 25.13 0.4 32.7 33 -14.1 6.7
15:15 1022 30.18 851 25.13 0.9 33.7 31 -14.5 5.8
15:20 1022 30.18 851 25.13 1.2 34.2 29 -15 4.9
15:25 1022 30.18 851 25.13 1.5 34.6 29 -14.7 5.5
15:30 1022 30.18 851 25.13 1.8 35.2 28 -14.9 5.2
15:35 1022 30.18 851 25.13 1.8 35.3 27 -15.1 4.8
15:40 1022 30.18 851 25.13 1.1 34 30 -14.7 5.5
15:45 1022 30.18 851 25.13 -0.1 31.8 32 -15 5.1
15:50 1022 30.18 851 25.13 -0.5 31.2 32 -15.2 4.6
15:55 1022 30.18 851 25.13 -0.1 31.7 32 -14.9 5.1
16:00 1022 30.18 851 25.13 0 32 32 -14.9 5.2
16:05 1022 30.18 851 25.13 -0.5 31.1 33 -14.8 5.3
16:10 1022 30.18 851 25.13 -0.2 31.6 32 -15.1 4.8
16:15 1022 30.18 851 25.13 0.1 32.2 32 -14.9 5.2
16:20 1022 30.18 851 25.13 -0.2 31.7 31 -15.3 4.4
16:25 1022 30.18 851 25.13 -0.2 31.6 31 -15.3 4.5
16:30 1022 30.18 851 25.13 -0.6 31 32 -15.3 4.5
16:35 1022 30.18 851 25.13 0.1 32.2 31 -15 4.9
16:40 1022 30.18 851 25.13 0.9 33.6 29 -15.1 4.8
16:45 1022 30.18 851 25.13 0.6 33.1 30 -14.9 5.2
16:50 1021 30.15 851 25.13 -0.3 31.5 32 -15 4.9
16:55 1022 30.18 851 25.13 -0.7 30.8 32 -15.4 4.3
17:00 1021 30.15 851 25.13 -0.4 31.4 31 -15.5 4
17:05 1021 30.15 851 25.13 0.1 32.1 32 -14.9 5.1
17:10 1021 30.15 851 25.13 -0.1 31.9 30 -15.6 4
17:15 1021 30.15 851 25.13 -0.1 31.8 29 -16.2 2.9
17:20 1021 30.15 851 25.13 -0.6 30.9 30 -16.1 3.1
17:25 1021 30.15 851 25.13 -0.8 30.6 32 -15.6 3.9
17:30 1021 30.15 851 25.13 -0.8 30.6 31 -15.7 3.7
17:35 1021 30.15 851 25.13 -1 30.1 33 -15.6 4
17:40 1021 30.15 851 25.13 -1.4 29.5 34 -15.3 4.4
17:45 1021 30.15 851 25.13 -1.7 28.9 37 -14.6 5.7
17:50 1021 30.15 851 25.13 -2.3 27.8 42 -13.7 7.3
17:55 1021 30.15 850 25.1 -2.8 26.9 44 -13.4 7.9
18:00 1021 30.15 851 25.13 -3.1 26.5 46 -13.2 8.2
18:05 1021 30.15 851 25.13 -3.2 26.2 47 -13 8.7
18:10 1021 30.15 851 25.13 -3.7 25.3 50 -12.7 9.2
18:15 1021 30.15 851 25.13 -3.9 24.9 51 -12.7 9.2
18:20 1021 30.15 850 25.1 -4 24.8 51 -12.6 9.2
18:25 1021 30.15 850 25.1 -4.4 24 52 -12.8 9
18:30 1021 30.15 850 25.1 -4.6 23.7 53 -12.8 9
18:35 1021 30.15 850 25.1 -4.4 24.1 52 -12.7 9.1
18:40 1021 30.15 850 25.1 -4.1 24.6 52 -12.6 9.2
18:45 1021 30.15 850 25.1 -4 24.8 54 -12.1 10.2
18:50 1021 30.15 850 25.1 -4.1 24.6 57 -11.3 11.6
18:55 1021 30.15 850 25.1 -4 24.7 56 -11.6 11.1
19:00 1021 30.15 850 25.1 -4.4 24.1 57 -11.8 10.8
19:05 1021 30.15 850 25.1 -4.9 23.1 58 -11.9 10.6
19:10 1021 30.15 850 25.1 -5 22.9 59 -11.9 10.6
19:15 1021 30.15 850 25.1 -4.8 23.4 58 -11.8 10.7
19:20 1021 30.15 850 25.1 -4.5 23.9 58 -11.6 11.1
19:25 1021 30.15 850 25.1 -4.2 24.4 56 -11.7 10.9
19:30 1021 30.15 850 25.1 -4.1 24.6 57 -11.4 11.6
19:35 1021 30.15 850 25.1 -4.3 24.3 58 -11.4 11.6
19:40 1021 30.15 850 25.1 -4.4 24.2 60 -11 12.2
19:45 1021 30.15 850 25.1 -4.4 24.1 58 -11.4 11.5
19:50 1021 30.15 850 25.1 -4.5 23.9 58 -11.5 11.3
19:55 1021 30.15 850 25.1 -4.7 23.6 57 -11.9 10.5
20:00 1021 30.15 850 25.1 -5.1 22.8 59 -12 10.4
20:05 1021 30.15 850 25.1 -5.6 21.9 62 -11.7 10.9
20:10 1021 30.15 850 25.1 -5.8 21.5 61 -12.3 9.9
20:15 1021 30.15 850 25.1 -5.7 21.8 60 -12.3 9.8
20:20 1021 30.15 850 25.1 -5.5 22.1 59 -12.3 9.8
20:25 1021 30.15 851 25.13 -5.3 22.4 59 -12.2 10
20:30 1021 30.15 850 25.1 -5.3 22.5 59 -12.2 10.1
20:35 1021 30.15 850 25.1 -5.2 22.6 59 -12 10.4
20:40 1021 30.15 851 25.13 -5.6 21.9 61 -11.9 10.5
20:45 1021 30.15 851 25.13 -5.9 21.4 61 -12.2 10.1
20:50 1021 30.15 850 25.1 -5.5 22.1 60 -12.1 10.2
20:55 1021 30.15 851 25.13 -5.4 22.3 59 -12.3 9.9
21:00 1021 30.15 851 25.13 -5.4 22.3 59 -12.2 10
21:05 1021 30.15 851 25.13 -5.5 22 60 -12.2 10
21:10 1021 30.15 850 25.1 -5.9 21.4 60 -12.5 9.5
21:15 1021 30.15 850 25.1 -6.3 20.7 63 -12.3 9.9
21:20 1021 30.15 850 25.1 -6 21.1 64 -11.9 10.6
21:25 1021 30.15 850 25.1 -6 21.2 62 -12.2 10.1
21:30 1021 30.15 850 25.1 -6.1 21 63 -12.1 10.2
21:35 1021 30.15 850 25.1 -6.2 20.9 63 -12.1 10.3
21:40 1021 30.15 850 25.1 -6.1 21 61 -12.5 9.5
21:45 1021 30.15 850 25.1 -6.1 21.1 60 -12.5 9.5
21:50 1021 30.15 850 25.1 -6.1 21.1 61 -12.4 9.7
21:55 1021 30.15 850 25.1 -6.2 20.9 61 -12.5 9.4
22:00 1021 30.15 850 25.1 -6.2 20.8 61 -12.5 9.5
22:05 1021 30.15 851 25.13 -6.4 20.5 62 -12.5 9.5
22:10 1021 30.15 851 25.13 -6.4 20.5 62 -12.5 9.5
22:15 1021 30.15 851 25.13 -6.4 20.5 63 -12.2 10
22:20 1021 30.15 851 25.13 -6.9 19.7 61 -13.1 8.4
22:25 1021 30.15 850 25.1 -7.1 19.3 59 -13.8 7.1
22:30 1021 30.15 850 25.1 -7 19.3 60 -13.6 7.5
22:35 1021 30.15 850 25.1 -7.5 18.5 62 -13.5 7.7
22:40 1021 30.15 850 25.1 -7.4 18.7 62 -13.5 7.6
22:45 1021 30.15 850 25.1 -7.6 18.3 64 -13.3 8
22:50 1021 30.15 850 25.1 -7.5 18.6 60 -14 6.8
22:55 1021 30.15 850 25.1 -7 19.4 60 -13.6 7.6
23:00 1021 30.15 851 25.13 -7 19.5 57 -14.1 6.7
23:05 1021 30.15 851 25.13 -6.5 20.2 56 -14 6.8
23:10 1021 30.15 851 25.13 -6.1 21.1 54 -14 6.8
23:15 1021 30.15 850 25.1 -6.1 20.9 55 -13.7 7.3
23:20 1021 30.15 851 25.13 -6.7 20 60 -13.2 8.3
23:25 1021 30.15 850 25.1 -7.2 19.1 63 -13 8.6
23:30 1021 30.15 851 25.13 -7.3 18.9 63 -13.1 8.4
23:35 1021 30.15 851 25.13 -7.4 18.7 63 -13.3 8.1
23:40 1021 30.15 851 25.13 -7.4 18.7 63 -13.2 8.3
23:45 1021 30.15 851 25.13 -7 19.4 58 -14 6.9
23:50 1021 30.15 851 25.13 -6.3 20.6 58 -13.3 8
23:55 1021 30.15 851 25.13 -6.7 19.9 61 -13.1 8.4
24:00 1022 30.18 851 25.13 -7.4 18.7 63 -13.3 8.1